Time;durP1;ratioP1;P1;durP2;ratioP2;P2;SDS_P1;SDS_P2;PMS_P1;PMS_P2;Temp;Humidity;BMP_temperature;BMP_pressure;BME280_temperature;BME280_humidity;BME280_pressure;Samples;Min_cycle;Max_cycle;Signal;HPM_P1;HPM_P2
2023/05/25 00:01:04;;;;;;;9.13;4.40;;;10.70;99.90;;;;;;5091722;28;20055;-64
2023/05/25 00:03:30;;;;;;;8.30;3.95;;;10.60;99.90;;;;;;5091865;28;20104;-64
2023/05/25 00:05:57;;;;;;;10.20;4.85;;;10.60;99.90;;;;;;5092161;28;20052;-64
2023/05/25 00:08:23;;;;;;;8.60;4.35;;;10.50;99.90;;;;;;5092041;28;20388;-64
2023/05/25 00:10:50;;;;;;;10.75;4.32;;;10.50;99.90;;;;;;5091997;28;20060;-64
2023/05/25 00:13:16;;;;;;;9.27;4.20;;;10.50;99.90;;;;;;5091422;28;20040;-63
2023/05/25 00:15:42;;;;;;;8.48;4.70;;;10.40;99.90;;;;;;5075161;28;20494;-64
2023/05/25 00:18:08;;;;;;;10.07;4.38;;;10.50;99.90;;;;;;5091969;28;20448;-65
2023/05/25 00:20:35;;;;;;;10.63;5.05;;;10.40;99.90;;;;;;5091345;28;20055;-63
2023/05/25 00:23:01;;;;;;;10.95;4.63;;;10.40;99.90;;;;;;5091405;28;20177;-64
2023/05/25 00:25:28;;;;;;;13.32;5.32;;;10.40;99.90;;;;;;5091588;28;20343;-64
2023/05/25 00:27:54;;;;;;;11.25;5.20;;;10.40;99.90;;;;;;5092198;28;20468;-64
2023/05/25 00:30:21;;;;;;;11.38;5.03;;;10.30;99.90;;;;;;5091419;28;20060;-65
2023/05/25 00:32:47;;;;;;;8.52;4.80;;;10.40;99.90;;;;;;5091665;28;20048;-65
2023/05/25 00:35:13;;;;;;;12.18;4.70;;;10.30;99.90;;;;;;5091432;28;20055;-64
2023/05/25 00:37:40;;;;;;;9.38;4.80;;;10.30;99.90;;;;;;5091752;28;20059;-65
2023/05/25 00:40:13;;;;;;;11.18;4.53;;;10.20;99.90;;;;;;5091507;28;20040;-64
2023/05/25 00:42:39;;;;;;;11.07;5.47;;;10.20;99.90;;;;;;5091724;28;20048;-64
2023/05/25 00:45:06;;;;;;;13.25;5.43;;;10.20;99.90;;;;;;5092691;28;20105;-63
2023/05/25 00:47:33;;;;;;;7.80;4.47;;;10.20;99.90;;;;;;5096239;28;20075;-64
2023/05/25 00:50:00;;;;;;;8.00;4.38;;;10.30;99.90;;;;;;5095914;28;20055;-66
2023/05/25 00:52:27;;;;;;;8.80;5.10;;;10.20;99.90;;;;;;5095746;28;20058;-63
2023/05/25 00:54:57;;;;;;;9.85;4.68;;;10.20;99.90;;;;;;5095346;28;20051;-63
2023/05/25 00:57:25;;;;;;;9.55;4.28;;;10.20;99.90;;;;;;5095650;28;20052;-64
2023/05/25 00:59:55;;;;;;;9.65;4.50;;;10.20;99.90;;;;;;5095312;28;20399;-65
2023/05/25 01:02:23;;;;;;;11.45;4.60;;;10.20;99.90;;;;;;5095293;28;20467;-63
2023/05/25 01:04:53;;;;;;;9.43;4.70;;;10.20;99.90;;;;;;5074593;28;20056;-64
2023/05/25 01:07:24;;;;;;;8.85;5.13;;;10.10;99.90;;;;;;5075275;28;20045;-63
2023/05/25 01:09:57;;;;;;;10.00;5.00;;;10.10;99.90;;;;;;5075508;28;20451;-64
2023/05/25 01:12:28;;;;;;;9.07;5.03;;;10.10;99.90;;;;;;5074980;28;20373;-64
2023/05/25 01:14:55;;;;;;;11.38;5.25;;;10.10;99.90;;;;;;5077196;28;20056;-66
2023/05/25 01:17:22;;;;;;;10.18;4.93;;;10.10;99.90;;;;;;5094975;28;20046;-65
2023/05/25 01:19:51;;;;;;;9.35;4.90;;;10.00;99.90;;;;;;5095194;28;20093;-63
2023/05/25 01:22:37;;;;;;;8.25;4.40;;;10.10;99.90;;;;;;5094615;28;20036;-63
2023/05/25 01:25:12;;;;;;;10.68;5.38;;;10.00;99.90;;;;;;5095278;28;20056;-65
2023/05/25 01:27:56;;;;;;;9.60;4.75;;;10.00;99.90;;;;;;5095417;28;20063;-64
2023/05/25 01:30:25;;;;;;;8.25;4.90;;;9.90;99.90;;;;;;5094931;28;20051;-63
2023/05/25 01:32:53;;;;;;;7.53;4.10;;;10.00;99.90;;;;;;5094834;28;20066;-63
2023/05/25 01:35:20;;;;;;;7.95;4.68;;;9.90;99.90;;;;;;5094556;28;20379;-63
2023/05/25 01:37:48;;;;;;;8.88;5.20;;;9.90;99.90;;;;;;5094811;28;20044;-64
2023/05/25 01:40:15;;;;;;;8.27;4.60;;;9.90;99.90;;;;;;5094675;28;20629;-64
2023/05/25 01:42:41;;;;;;;13.68;5.70;;;9.90;99.90;;;;;;5094890;28;20044;-65
2023/05/25 01:45:09;;;;;;;11.32;5.63;;;9.80;99.90;;;;;;5077876;28;20472;-64
2023/05/25 01:47:54;;;;;;;11.75;5.05;;;9.90;99.90;;;;;;5094468;28;20365;-63
2023/05/25 01:50:26;;;;;;;7.18;5.00;;;9.80;99.90;;;;;;5094119;28;20048;-63
2023/05/25 01:53:01;;;;;;;11.13;5.20;;;9.80;99.90;;;;;;5094389;28;20040;-63
2023/05/25 01:55:31;;;;;;;9.77;5.65;;;9.80;99.90;;;;;;5094792;28;20101;-63
2023/05/25 01:57:59;;;;;;;10.50;5.00;;;9.70;99.90;;;;;;5093666;28;20052;-63
2023/05/25 02:00:30;;;;;;;9.02;4.93;;;9.70;99.90;;;;;;5094460;28;20456;-64
2023/05/25 02:02:57;;;;;;;12.32;5.13;;;9.70;99.90;;;;;;5094078;28;20074;-64
2023/05/25 02:05:23;;;;;;;11.48;5.78;;;9.70;99.90;;;;;;5094416;28;20233;-64
2023/05/25 02:07:49;;;;;;;11.30;5.53;;;9.70;99.90;;;;;;5077237;28;20066;-63
2023/05/25 02:10:16;;;;;;;9.38;5.15;;;9.60;99.90;;;;;;5093810;28;20113;-65
2023/05/25 02:12:42;;;;;;;9.82;4.72;;;9.60;99.90;;;;;;5094363;28;20382;-64
2023/05/25 02:15:09;;;;;;;10.15;5.43;;;9.60;99.90;;;;;;5093899;28;20457;-67
2023/05/25 02:17:36;;;;;;;12.93;5.30;;;9.60;99.90;;;;;;5077539;28;20040;-65
2023/05/25 02:20:05;;;;;;;8.43;4.93;;;9.60;99.90;;;;;;5093466;28;20059;-65
2023/05/25 02:22:32;;;;;;;12.55;5.30;;;9.50;99.90;;;;;;5093724;28;20388;-64
2023/05/25 02:24:58;;;;;;;9.95;5.57;;;9.50;99.90;;;;;;5093895;28;20473;-65
2023/05/25 02:27:25;;;;;;;11.98;5.57;;;9.50;99.90;;;;;;5093608;28;20047;-65
2023/05/25 02:29:52;;;;;;;13.52;5.65;;;9.50;99.90;;;;;;5093178;28;20060;-64
2023/05/25 02:32:18;;;;;;;8.38;5.07;;;9.60;99.90;;;;;;5093710;28;20427;-65
2023/05/25 02:34:45;;;;;;;11.45;5.60;;;9.50;99.90;;;;;;5076522;28;20094;-66
2023/05/25 02:37:12;;;;;;;9.55;5.28;;;9.50;99.90;;;;;;5093752;28;20101;-64
2023/05/25 02:39:38;;;;;;;9.35;4.75;;;9.40;99.90;;;;;;5077200;28;20047;-65
2023/05/25 02:42:05;;;;;;;11.93;5.15;;;9.50;99.90;;;;;;5076861;28;20344;-65
2023/05/25 02:44:31;;;;;;;13.75;5.47;;;9.40;99.90;;;;;;5093420;28;20052;-65
2023/05/25 02:46:57;;;;;;;10.15;4.72;;;9.40;99.90;;;;;;5093221;28;20109;-64
2023/05/25 02:49:23;;;;;;;12.60;5.55;;;9.30;99.90;;;;;;5093398;28;20385;-63
2023/05/25 02:51:50;;;;;;;13.32;5.70;;;9.40;99.90;;;;;;5093394;28;20067;-63
2023/05/25 02:54:16;;;;;;;10.05;5.45;;;9.30;99.90;;;;;;5093113;28;20093;-65
2023/05/25 02:56:43;;;;;;;10.60;5.63;;;9.30;99.90;;;;;;5076289;28;20131;-64
2023/05/25 02:59:09;;;;;;;9.68;5.30;;;9.30;99.90;;;;;;5076472;28;20044;-63
2023/05/25 03:01:36;;;;;;;9.90;5.63;;;9.20;99.90;;;;;;5092821;28;20044;-63
2023/05/25 03:04:02;;;;;;;12.88;6.05;;;9.30;99.90;;;;;;5093285;28;20413;-64
2023/05/25 03:06:28;;;;;;;12.85;5.03;;;9.30;99.90;;;;;;5075649;28;20052;-63
2023/05/25 03:08:55;;;;;;;9.07;4.90;;;9.20;99.90;;;;;;5092012;28;20067;-64
2023/05/25 03:11:21;;;;;;;10.98;5.32;;;9.30;99.90;;;;;;5092421;28;20436;-63
2023/05/25 03:13:47;;;;;;;10.38;5.25;;;9.30;99.90;;;;;;5092793;28;20452;-64
2023/05/25 03:16:13;;;;;;;12.75;6.15;;;9.20;99.90;;;;;;5092646;28;20054;-64
2023/05/25 03:18:40;;;;;;;13.18;5.63;;;9.30;99.90;;;;;;5092647;28;20044;-64
2023/05/25 03:21:06;;;;;;;12.23;6.28;;;9.30;99.90;;;;;;5075572;28;20055;-66
2023/05/25 03:23:32;;;;;;;14.00;6.30;;;9.20;99.90;;;;;;5092635;28;20044;-63
2023/05/25 03:25:59;;;;;;;9.57;5.85;;;9.20;99.90;;;;;;5092106;28;20047;-66
2023/05/25 03:28:25;;;;;;;11.25;6.18;;;9.10;99.90;;;;;;5092269;28;20472;-64
2023/05/25 03:30:51;;;;;;;9.60;6.10;;;9.10;99.90;;;;;;5075257;28;20056;-64
2023/05/25 03:33:17;;;;;;;13.85;6.65;;;9.10;99.90;;;;;;5092009;28;20051;-65
2023/05/25 03:35:44;;;;;;;14.93;6.50;;;9.20;99.90;;;;;;5091736;28;20380;-64
2023/05/25 03:38:11;;;;;;;11.93;6.35;;;9.10;99.90;;;;;;5093347;28;20051;-65
2023/05/25 03:40:37;;;;;;;13.32;6.15;;;9.10;99.90;;;;;;5075035;28;20309;-64
2023/05/25 03:43:03;;;;;;;14.32;6.22;;;9.10;99.90;;;;;;5091726;28;20083;-63
2023/05/25 03:45:30;;;;;;;13.70;6.28;;;9.20;99.90;;;;;;5092536;28;20056;-65
2023/05/25 03:47:56;;;;;;;14.30;6.80;;;9.10;99.90;;;;;;5075260;28;20058;-64
2023/05/25 03:50:22;;;;;;;13.38;6.60;;;9.10;99.90;;;;;;5091989;28;20052;-65
2023/05/25 03:52:49;;;;;;;13.85;6.75;;;9.10;99.90;;;;;;5091366;28;20406;-64
2023/05/25 03:55:15;;;;;;;12.65;5.55;;;9.20;99.90;;;;;;5091415;28;20434;-64
2023/05/25 03:57:42;;;;;;;14.10;5.90;;;9.10;99.90;;;;;;5092139;28;20131;-64
2023/05/25 04:00:09;;;;;;;9.45;5.90;;;9.20;99.90;;;;;;5091581;28;20040;-65
2023/05/25 04:02:35;;;;;;;10.68;5.88;;;9.20;99.90;;;;;;5091683;28;20456;-64
2023/05/25 04:05:02;;;;;;;10.50;5.85;;;9.20;99.90;;;;;;5091661;28;20058;-63
2023/05/25 04:07:29;;;;;;;12.68;6.50;;;9.30;99.90;;;;;;5091919;28;20450;-64
2023/05/25 04:09:58;;;;;;;13.63;6.35;;;9.30;99.90;;;;;;5091672;28;20124;-66
2023/05/25 04:12:25;;;;;;;13.35;6.25;;;9.30;99.90;;;;;;5091451;28;20097;-64
2023/05/25 04:14:52;;;;;;;13.80;6.47;;;9.40;99.90;;;;;;5091850;28;20044;-64
2023/05/25 04:17:21;;;;;;;11.75;6.30;;;9.40;99.90;;;;;;5075698;28;20062;-66
2023/05/25 04:19:47;;;;;;;9.20;5.97;;;9.40;99.90;;;;;;5091354;28;20078;-64
2023/05/25 04:22:13;;;;;;;10.00;6.35;;;9.50;99.90;;;;;;5091586;28;20062;-64
2023/05/25 04:24:40;;;;;;;11.90;5.93;;;9.50;99.90;;;;;;5091883;28;20484;-64
2023/05/25 04:27:06;;;;;;;11.48;6.13;;;9.50;99.90;;;;;;5092385;28;20384;-64
2023/05/25 04:29:32;;;;;;;13.00;6.05;;;9.60;99.90;;;;;;5091773;28;20126;-64
2023/05/25 04:32:01;;;;;;;13.93;6.63;;;9.60;99.90;;;;;;5091794;28;20047;-63
2023/05/25 04:34:28;;;;;;;12.75;6.45;;;9.60;99.90;;;;;;5074115;28;20090;-65
2023/05/25 04:36:55;;;;;;;10.75;6.55;;;9.60;99.90;;;;;;5091185;28;20428;-65
2023/05/25 04:39:21;;;;;;;11.55;6.43;;;9.70;99.90;;;;;;5074628;28;20502;-64
2023/05/25 04:41:48;;;;;;;13.05;6.70;;;9.80;99.90;;;;;;5074637;28;20380;-65
2023/05/25 04:44:14;;;;;;;9.43;6.50;;;9.80;99.90;;;;;;5091074;28;20482;-64
2023/05/25 04:46:41;;;;;;;13.90;6.93;;;9.90;99.90;;;;;;5091395;28;20460;-64
2023/05/25 04:49:08;;;;;;;17.10;7.78;;;9.90;99.90;;;;;;5091480;28;20063;-64
2023/05/25 04:51:35;;;;;;;16.70;6.95;;;10.10;99.90;;;;;;5091193;28;20052;-63
2023/05/25 04:54:02;;;;;;;13.52;7.15;;;10.30;99.90;;;;;;5091043;28;20367;-64
2023/05/25 04:56:28;;;;;;;14.40;8.07;;;10.80;99.90;;;;;;5091358;28;20056;-65
2023/05/25 04:58:54;;;;;;;13.13;7.30;;;11.50;99.90;;;;;;5091177;28;20594;-64
2023/05/25 05:01:21;;;;;;;13.70;7.57;;;12.10;99.90;;;;;;5091537;28;20472;-64
2023/05/25 05:03:47;;;;;;;12.90;6.82;;;12.80;99.90;;;;;;5074459;28;20055;-64
2023/05/25 05:06:13;;;;;;;13.75;7.32;;;13.30;99.90;;;;;;5083713;28;20160;-63
2023/05/25 05:08:40;;;;;;;14.55;7.80;;;13.80;99.90;;;;;;5079619;28;20047;-64
2023/05/25 05:11:06;;;;;;;15.57;7.35;;;13.50;99.90;;;;;;5063180;28;20052;-64
2023/05/25 05:13:32;;;;;;;12.07;8.15;;;13.30;99.90;;;;;;5080956;28;20514;-65
2023/05/25 05:15:59;;;;;;;12.18;7.35;;;13.10;99.90;;;;;;5074543;28;20109;-64
2023/05/25 05:18:25;;;;;;;11.52;7.40;;;13.20;99.90;;;;;;5081089;28;20127;-63
2023/05/25 05:20:51;;;;;;;12.75;7.43;;;13.90;99.90;;;;;;5077830;28;20350;-64
2023/05/25 05:23:18;;;;;;;13.10;7.63;;;14.40;99.90;;;;;;5079437;28;20050;-66
2023/05/25 05:25:45;;;;;;;11.95;7.03;;;14.80;99.90;;;;;;5059369;28;20086;-64
2023/05/25 05:28:11;;;;;;;11.32;7.43;;;15.60;99.90;;;;;;5070846;28;20213;-64
2023/05/25 05:30:37;;;;;;;12.73;7.45;;;16.20;99.90;;;;;;5070318;28;20388;-65
2023/05/25 05:33:03;;;;;;;12.32;8.00;;;16.50;99.90;;;;;;5074064;28;20110;-64
2023/05/25 05:35:30;;;;;;;11.38;6.65;;;16.80;99.90;;;;;;5094310;28;20048;-63
2023/05/25 05:37:56;;;;;;;14.13;7.03;;;17.50;99.90;;;;;;5095050;28;20055;-63
2023/05/25 05:40:24;;;;;;;14.15;7.10;;;17.70;99.90;;;;;;5094472;28;20397;-64
2023/05/25 05:42:51;;;;;;;12.05;7.03;;;18.10;99.90;;;;;;5095550;28;20040;-64
2023/05/25 05:45:17;;;;;;;12.38;6.53;;;18.30;99.90;;;;;;5078208;28;20460;-65
2023/05/25 05:47:44;;;;;;;13.05;7.32;;;18.50;99.90;;;;;;5085481;28;20060;-66
2023/05/25 05:50:10;;;;;;;11.75;6.88;;;18.50;99.90;;;;;;5075110;28;20049;-64
2023/05/25 05:52:36;;;;;;;9.93;6.32;;;18.60;99.90;;;;;;5075230;28;20098;-63
2023/05/25 05:55:03;;;;;;;12.73;6.90;;;18.80;99.90;;;;;;5091964;28;20059;-64
2023/05/25 05:57:29;;;;;;;11.82;6.60;;;18.60;99.90;;;;;;5078694;28;20066;-63
2023/05/25 05:59:55;;;;;;;13.00;6.03;;;19.20;99.90;;;;;;5078299;28;20117;-64
2023/05/25 06:02:22;;;;;;;10.27;6.72;;;19.10;99.90;;;;;;5094005;28;20380;-63
2023/05/25 06:04:48;;;;;;;11.95;6.30;;;18.90;99.90;;;;;;5076457;28;20055;-64
2023/05/25 06:07:14;;;;;;;10.23;6.30;;;18.60;99.90;;;;;;5093871;28;20059;-64
2023/05/25 06:09:40;;;;;;;13.18;7.43;;;18.80;99.90;;;;;;5093026;28;20044;-65
2023/05/25 06:12:07;;;;;;;15.27;7.22;;;19.00;99.90;;;;;;5093844;28;20124;-65
2023/05/25 06:14:34;;;;;;;12.45;6.97;;;19.20;99.90;;;;;;5093992;28;20052;-64
2023/05/25 06:17:00;;;;;;;13.65;6.75;;;19.30;99.90;;;;;;5077606;28;20044;-64
2023/05/25 06:19:26;;;;;;;13.23;6.85;;;19.20;99.90;;;;;;5093920;28;20106;-65
2023/05/25 06:21:53;;;;;;;14.02;6.68;;;19.30;99.90;;;;;;5094110;28;20445;-65
2023/05/25 06:24:19;;;;;;;10.32;6.82;;;19.40;99.90;;;;;;5076626;28;20059;-64
2023/05/25 06:26:45;;;;;;;10.95;6.25;;;19.80;99.90;;;;;;5076949;28;20290;-61
2023/05/25 06:29:12;;;;;;;10.00;6.00;;;19.80;99.90;;;;;;5092677;28;20052;-64
2023/05/25 06:31:39;;;;;;;10.32;6.03;;;20.20;99.90;;;;;;5093542;28;20051;-65
2023/05/25 06:34:05;;;;;;;10.70;6.18;;;20.60;99.90;;;;;;5093060;28;20052;-62
2023/05/25 06:36:31;;;;;;;9.93;5.97;;;20.70;99.90;;;;;;5092956;28;20040;-62
2023/05/25 06:38:57;;;;;;;11.38;5.93;;;20.40;99.90;;;;;;5093691;28;20054;-62
2023/05/25 06:41:24;;;;;;;12.23;5.70;;;20.40;99.90;;;;;;5088504;28;20044;-62
2023/05/25 06:43:50;;;;;;;10.23;5.72;;;20.60;99.90;;;;;;5092316;28;20526;-62
2023/05/25 06:46:16;;;;;;;11.48;6.25;;;20.20;99.90;;;;;;5092816;28;20044;-61
2023/05/25 06:48:44;;;;;;;10.88;5.63;;;20.00;99.90;;;;;;5093359;28;20078;-62
2023/05/25 06:51:10;;;;;;;14.73;5.75;;;20.30;99.90;;;;;;5075766;28;20361;-63
2023/05/25 06:53:38;;;;;;;11.18;5.40;;;19.90;99.90;;;;;;5093878;28;20040;-62
2023/05/25 06:56:04;;;;;;;10.57;5.07;;;19.50;99.90;;;;;;5076554;28;20349;-62
2023/05/25 06:58:31;;;;;;;11.85;5.07;;;19.10;99.90;;;;;;5093583;28;20109;-62
2023/05/25 07:00:59;;;;;;;10.43;5.07;;;18.90;99.90;;;;;;5093228;28;20049;-62
2023/05/25 07:03:26;;;;;;;9.60;5.32;;;18.40;99.90;;;;;;5093340;28;20048;-62
2023/05/25 07:05:52;;;;;;;12.43;5.30;;;18.10;99.90;;;;;;5093147;28;20048;-62
2023/05/25 07:08:18;;;;;;;9.50;5.45;;;18.20;99.90;;;;;;5093310;28;20052;-62
2023/05/25 07:10:45;;;;;;;9.70;5.30;;;18.10;99.90;;;;;;5092723;28;20052;-62
2023/05/25 07:13:11;;;;;;;10.57;5.00;;;17.80;99.90;;;;;;5092818;28;20401;-63
2023/05/25 07:15:37;;;;;;;10.88;4.82;;;17.70;99.90;;;;;;5092198;28;20044;-65
2023/05/25 07:18:03;;;;;;;12.95;4.63;;;17.60;99.90;;;;;;5093071;28;20085;-63
2023/05/25 07:20:30;;;;;;;8.50;4.38;;;17.30;99.90;;;;;;5092474;28;20056;-62
2023/05/25 07:22:56;;;;;;;8.20;4.50;;;17.00;99.90;;;;;;5093506;28;20048;-63
2023/05/25 07:25:22;;;;;;;12.05;4.03;;;16.80;99.90;;;;;;5092605;28;20360;-64
2023/05/25 07:27:49;;;;;;;8.60;4.70;;;16.80;99.90;;;;;;5092483;28;20475;-64
2023/05/25 07:30:15;;;;;;;8.13;3.92;;;16.70;99.90;;;;;;5092438;28;20063;-63
2023/05/25 07:32:42;;;;;;;8.23;4.10;;;16.70;99.90;;;;;;5093017;28;20047;-63
2023/05/25 07:35:08;;;;;;;8.38;4.30;;;16.60;99.90;;;;;;5092460;28;20486;-65
2023/05/25 07:37:34;;;;;;;7.68;4.18;;;16.70;99.90;;;;;;5092805;28;20105;-63
2023/05/25 07:40:01;;;;;;;6.75;3.05;;;16.80;99.90;;;;;;5092026;28;20533;-62
2023/05/25 07:42:32;;;;;;;6.95;3.20;;;16.80;99.90;;;;;;5092024;28;20113;-63
2023/05/25 07:45:02;;;;;;;8.73;3.97;;;16.90;99.90;;;;;;5092008;28;20364;-63
2023/05/25 07:47:29;;;;;;;9.85;4.30;;;17.10;99.90;;;;;;5091940;28;20070;-63
2023/05/25 07:49:55;;;;;;;10.02;4.35;;;17.30;99.90;;;;;;5091526;28;20482;-63
2023/05/25 07:52:21;;;;;;;10.88;4.57;;;17.50;99.90;;;;;;5092266;28;20070;-64
2023/05/25 07:54:47;;;;;;;10.20;4.28;;;17.30;99.90;;;;;;5090841;28;20044;-64
2023/05/25 07:57:14;;;;;;;9.32;3.50;;;17.20;99.90;;;;;;5092039;28;20067;-64
2023/05/25 07:59:40;;;;;;;9.25;3.65;;;17.30;99.90;;;;;;5091620;28;20051;-63
2023/05/25 08:02:06;;;;;;;9.93;3.80;;;17.30;99.90;;;;;;5075427;28;20078;-64
2023/05/25 08:04:34;;;;;;;9.57;3.80;;;17.40;99.90;;;;;;5092074;28;20123;-64
2023/05/25 08:07:00;;;;;;;8.13;3.90;;;17.50;99.90;;;;;;5092252;28;20059;-63
2023/05/25 08:09:26;;;;;;;11.35;3.63;;;17.40;99.90;;;;;;5091387;28;20487;-63
2023/05/25 08:11:52;;;;;;;9.05;3.75;;;17.20;99.90;;;;;;5075106;28;20396;-64
2023/05/25 08:14:19;;;;;;;10.40;3.65;;;17.20;99.90;;;;;;5091669;28;20359;-64
2023/05/25 08:16:46;;;;;;;9.80;3.42;;;17.00;99.90;;;;;;5092235;28;20048;-63
2023/05/25 08:19:12;;;;;;;9.88;3.55;;;16.80;99.90;;;;;;5091668;28;20330;-63
2023/05/25 08:21:39;;;;;;;11.38;3.75;;;16.80;99.90;;;;;;5075139;28;20044;-65
2023/05/25 08:24:07;;;;;;;7.88;3.58;;;16.90;99.90;;;;;;5091563;28;20056;-63
2023/05/25 08:26:37;;;;;;;8.57;4.05;;;16.90;99.90;;;;;;5092099;28;20411;-63
2023/05/25 08:29:04;;;;;;;8.35;3.20;;;16.80;99.90;;;;;;5090829;28;20055;-65
2023/05/25 08:31:31;;;;;;;10.20;3.20;;;16.60;99.90;;;;;;5075103;28;20109;-64
2023/05/25 08:33:59;;;;;;;10.02;3.72;;;16.60;99.90;;;;;;5091725;28;20109;-63
2023/05/25 08:36:26;;;;;;;11.10;4.05;;;16.40;99.90;;;;;;5091510;28;20105;-64
2023/05/25 08:38:52;;;;;;;9.68;4.10;;;16.40;99.90;;;;;;5075153;28;20345;-63
2023/05/25 08:41:20;;;;;;;9.13;4.18;;;16.40;99.90;;;;;;5091202;28;20123;-63
2023/05/25 08:43:46;;;;;;;10.32;4.35;;;16.40;99.90;;;;;;5091867;28;20043;-64
2023/05/25 08:46:13;;;;;;;8.70;3.85;;;16.40;99.90;;;;;;5091787;28;20045;-64
2023/05/25 08:48:41;;;;;;;10.88;3.90;;;16.50;99.90;;;;;;5092093;28;20051;-64
2023/05/25 08:51:09;;;;;;;8.80;3.60;;;16.60;99.90;;;;;;5091235;28;20056;-64
2023/05/25 08:53:40;;;;;;;6.53;3.67;;;16.70;99.90;;;;;;5091853;28;20419;-65
2023/05/25 08:56:18;;;;;;;9.25;3.85;;;16.70;99.90;;;;;;5075017;28;20052;-66
2023/05/25 08:59:04;;;;;;;10.32;3.45;;;16.70;99.90;;;;;;5091921;28;20052;-63
2023/05/25 09:01:37;;;;;;;10.20;3.60;;;16.70;99.90;;;;;;5091668;28;20079;-65
2023/05/25 09:04:03;;;;;;;7.43;3.03;;;16.70;99.90;;;;;;5091941;28;20117;-64
2023/05/25 09:06:30;;;;;;;10.93;3.03;;;16.70;99.90;;;;;;5092836;28;20472;-64
2023/05/25 09:08:56;;;;;;;9.45;3.20;;;16.70;99.90;;;;;;5095591;28;20442;-64
2023/05/25 09:11:22;;;;;;;8.75;3.63;;;16.60;99.90;;;;;;5095776;28;20063;-64
2023/05/25 09:13:49;;;;;;;12.35;3.55;;;16.60;99.90;;;;;;5095245;28;20441;-63
2023/05/25 09:16:17;;;;;;;8.85;3.10;;;16.40;99.90;;;;;;5078296;28;20464;-64
2023/05/25 09:18:43;;;;;;;12.20;3.92;;;16.50;99.90;;;;;;5095703;28;20109;-63
2023/05/25 09:21:10;;;;;;;9.02;3.40;;;16.50;99.90;;;;;;5095226;28;20477;-64
2023/05/25 09:23:36;;;;;;;9.88;3.58;;;16.50;99.90;;;;;;5095434;28;20180;-64
2023/05/25 09:26:03;;;;;;;8.88;3.60;;;16.50;99.90;;;;;;5095561;28;20071;-64
2023/05/25 09:28:29;;;;;;;9.18;3.30;;;16.60;99.90;;;;;;5095676;28;20056;-63
2023/05/25 09:30:55;;;;;;;9.15;3.60;;;16.70;99.90;;;;;;5095436;28;20048;-65
2023/05/25 09:33:22;;;;;;;10.35;3.42;;;16.70;99.90;;;;;;5095620;28;20052;-64
2023/05/25 09:35:50;;;;;;;10.80;3.67;;;16.80;99.90;;;;;;5094897;28;20139;-63
2023/05/25 09:38:16;;;;;;;10.23;3.90;;;16.90;99.90;;;;;;5077856;28;20093;-64
2023/05/25 09:40:43;;;;;;;10.20;3.85;;;16.80;99.90;;;;;;5094535;28;20048;-63
2023/05/25 09:43:11;;;;;;;10.23;3.67;;;16.70;99.90;;;;;;5094974;28;20054;-64
2023/05/25 09:45:38;;;;;;;8.90;3.50;;;16.70;99.90;;;;;;5094290;28;20044;-65
2023/05/25 09:48:06;;;;;;;9.90;3.35;;;16.60;99.90;;;;;;5078202;28;20052;-64
2023/05/25 09:50:34;;;;;;;15.70;4.03;;;16.60;99.90;;;;;;5094140;28;20246;-63
2023/05/25 09:53:01;;;;;;;12.05;3.90;;;16.40;99.90;;;;;;5095816;28;20048;-63
2023/05/25 09:55:28;;;;;;;11.88;3.83;;;16.50;99.90;;;;;;5094570;28;20473;-63
2023/05/25 09:57:55;;;;;;;14.07;4.00;;;16.50;99.90;;;;;;5077978;28;20484;-65
2023/05/25 10:00:25;;;;;;;14.55;4.15;;;16.60;99.90;;;;;;5094291;28;20318;-63
2023/05/25 10:02:51;;;;;;;10.13;4.10;;;16.50;99.90;;;;;;5077923;28;20048;-63
2023/05/25 10:05:18;;;;;;;13.98;4.40;;;16.70;99.90;;;;;;5094299;28;20105;-63
2023/05/25 10:07:45;;;;;;;17.20;4.93;;;16.70;99.90;;;;;;5094597;28;20055;-63
2023/05/25 10:10:17;;;;;;;12.35;3.83;;;16.70;99.90;;;;;;5094552;28;20097;-65
2023/05/25 10:12:44;;;;;;;16.13;4.43;;;16.80;99.90;;;;;;5077838;28;20055;-64
2023/05/25 10:15:12;;;;;;;10.55;3.70;;;16.90;99.90;;;;;;5094020;28;20464;-64
2023/05/25 10:17:54;;;;;;;12.18;3.90;;;17.00;99.90;;;;;;5093836;28;20480;-65
2023/05/25 10:20:24;;;;;;;13.80;4.05;;;17.20;99.90;;;;;;5061045;28;20455;-63
2023/05/25 10:22:56;;;;;;;14.30;4.13;;;17.30;99.90;;;;;;5094219;28;20047;-64
2023/05/25 10:25:39;;;;;;;14.75;4.68;;;17.30;99.90;;;;;;5093650;28;20048;-63
2023/05/25 10:28:27;;;;;;;12.68;4.13;;;17.40;99.90;;;;;;5093879;28;20056;-65
2023/05/25 10:30:56;;;;;;;15.05;4.15;;;17.40;99.90;;;;;;5076726;28;20052;-63
2023/05/25 10:33:23;;;;;;;9.35;3.42;;;17.30;99.90;;;;;;5093678;28;20044;-64
2023/05/25 10:35:49;;;;;;;12.27;3.92;;;17.30;99.90;;;;;;5093552;28;20050;-63
2023/05/25 10:38:18;;;;;;;12.30;3.78;;;17.30;99.90;;;;;;5093704;28;20052;-63
2023/05/25 10:40:51;;;;;;;12.60;4.07;;;17.50;99.90;;;;;;5093111;28;20044;-63
2023/05/25 10:43:18;;;;;;;12.02;3.60;;;17.60;99.90;;;;;;5093619;28;20414;-63
2023/05/25 10:45:46;;;;;;;12.82;4.05;;;17.70;99.90;;;;;;5093494;28;20048;-63
2023/05/25 10:48:14;;;;;;;13.27;4.68;;;17.80;99.90;;;;;;5093636;28;20147;-62
2023/05/25 10:50:40;;;;;;;12.00;3.83;;;17.90;99.90;;;;;;5093129;28;20361;-64
2023/05/25 10:53:07;;;;;;;12.48;3.67;;;18.00;99.90;;;;;;5094499;28;20059;-63
2023/05/25 10:55:52;;;;;;;12.15;3.45;;;18.20;99.90;;;;;;5093371;28;20040;-62
2023/05/25 10:58:21;;;;;;;18.75;3.90;;;18.10;99.90;;;;;;5093536;28;20059;-62
2023/05/25 11:01:06;;;;;;;12.55;3.90;;;18.10;99.90;;;;;;5086517;28;20073;-63
2023/05/25 11:03:51;;;;;;;15.93;3.95;;;17.90;99.90;;;;;;5078349;28;20048;-63
2023/05/25 11:06:20;;;;;;;12.82;4.07;;;17.90;99.90;;;;;;5092741;28;20116;-65
2023/05/25 11:08:53;;;;;;;13.07;4.25;;;18.00;99.90;;;;;;5092480;28;20434;-63
2023/05/25 11:11:21;;;;;;;13.43;4.85;;;18.10;99.90;;;;;;5092558;28;20062;-64
2023/05/25 11:13:49;;;;;;;13.13;3.80;;;18.30;99.90;;;;;;5075601;28;20059;-65
2023/05/25 11:16:23;;;;;;;12.07;3.58;;;18.40;99.90;;;;;;5092136;28;20098;-64
2023/05/25 11:18:54;;;;;;;12.65;3.78;;;18.60;99.50;;;;;;5075328;28;20376;-64
2023/05/25 11:21:25;;;;;;;12.48;4.00;;;18.60;99.20;;;;;;5075469;28;20044;-63
2023/05/25 11:23:56;;;;;;;15.30;4.07;;;18.70;99.50;;;;;;5092682;28;20036;-64
2023/05/25 11:26:31;;;;;;;15.30;3.70;;;18.90;99.20;;;;;;5092290;28;20507;-63
2023/05/25 11:28:59;;;;;;;12.23;3.83;;;19.00;99.20;;;;;;5091537;28;20535;-65
2023/05/25 11:31:33;;;;;;;14.07;4.18;;;19.10;99.10;;;;;;5091603;28;20048;-62
2023/05/25 11:34:01;;;;;;;11.82;4.15;;;18.80;98.70;;;;;;5091918;28;20056;-64
2023/05/25 11:36:32;;;;;;;13.60;4.03;;;18.60;99.00;;;;;;5092091;28;20114;-65
2023/05/25 11:39:04;;;;;;;11.48;4.20;;;18.70;99.20;;;;;;5092042;28;20369;-65
2023/05/25 11:41:31;;;;;;;9.57;3.92;;;18.80;98.70;;;;;;5092335;28;20044;-65
2023/05/25 11:44:05;;;;;;;14.63;4.40;;;18.80;98.70;;;;;;5092079;28;20479;-65
2023/05/25 11:46:33;;;;;;;11.18;3.65;;;18.90;98.50;;;;;;5091910;28;20051;-64
2023/05/25 11:49:00;;;;;;;14.35;4.00;;;18.90;98.10;;;;;;5074592;28;20048;-64
2023/05/25 11:51:28;;;;;;;14.15;4.50;;;18.90;98.20;;;;;;5092209;28;20077;-65
2023/05/25 11:53:55;;;;;;;13.80;4.60;;;19.10;98.20;;;;;;5091799;28;20067;-65
2023/05/25 11:56:22;;;;;;;13.90;4.25;;;19.20;98.20;;;;;;5074997;28;20055;-64
2023/05/25 11:58:51;;;;;;;11.50;3.65;;;19.10;97.50;;;;;;5091320;28;20055;-65
2023/05/25 12:01:19;;;;;;;12.18;4.22;;;19.00;97.60;;;;;;5075570;28;20071;-65
2023/05/25 12:03:47;;;;;;;11.18;3.90;;;19.00;98.00;;;;;;5091262;28;20075;-65
2023/05/25 12:06:26;;;;;;;10.82;3.90;;;19.00;98.00;;;;;;5092095;28;20457;-63
2023/05/25 12:08:54;;;;;;;15.45;4.13;;;19.10;97.50;;;;;;5080929;28;20047;-64
2023/05/25 12:11:28;;;;;;;11.43;3.78;;;19.10;97.70;;;;;;5071656;28;20472;-63
2023/05/25 12:13:55;;;;;;;13.98;4.07;;;19.40;97.40;;;;;;5076044;28;20063;-66
2023/05/25 12:16:22;;;;;;;16.83;4.28;;;19.50;97.40;;;;;;5090216;28;20157;-63
2023/05/25 12:18:50;;;;;;;14.68;4.30;;;19.20;97.00;;;;;;5091555;28;20160;-64
2023/05/25 12:21:17;;;;;;;11.13;3.92;;;19.10;97.50;;;;;;5091769;28;20056;-63
2023/05/25 12:23:44;;;;;;;14.85;4.43;;;19.10;97.70;;;;;;5089892;28;20044;-62
2023/05/25 12:26:12;;;;;;;11.52;3.97;;;19.10;97.50;;;;;;5074702;28;20060;-63
2023/05/25 12:28:40;;;;;;;13.90;3.85;;;19.00;97.10;;;;;;5073961;28;20051;-64
2023/05/25 12:31:28;;;;;;;11.82;4.28;;;19.10;97.10;;;;;;5091595;28;20130;-62
2023/05/25 12:34:10;;;;;;;15.73;3.65;;;19.10;96.70;;;;;;5091565;28;20044;-63
2023/05/25 12:36:41;;;;;;;12.27;3.70;;;19.10;96.50;;;;;;5091403;28;20066;-63
2023/05/25 12:39:08;;;;;;;16.30;4.32;;;19.00;96.20;;;;;;5091416;28;20048;-64
2023/05/25 12:41:45;;;;;;;14.48;3.80;;;19.20;96.70;;;;;;5091575;28;20052;-62
2023/05/25 12:44:30;;;;;;;13.73;4.07;;;19.10;96.20;;;;;;5092317;28;20356;-63
2023/05/25 12:47:12;;;;;;;12.45;3.88;;;19.10;96.50;;;;;;5090989;28;20047;-63